Cibolo, Texas
Current Conditions -  °F | °C
As of 11:58 PM on Sunday 25 Jan 2015 (Local Time) from KRND Reporting Station
Clear Clear  
Wind Chill: 39°   Ceiling: Unl
Heat Index: 44°   Visibility: 10mi
Dew Point: 35°   Wind: 10mph
Humidity: 71%   Direction: 330°NNW
Pressure: 30.21"   Gusts: NA
Location:  29.56°N, 98.23°W
Report Text: KRND 260558Z AUTO 33009KT 10SM CLR 07/02 A3021 RMK AO2 SLP229 T00690019 10178 20069 402150032 50007 $
Loading
Personal Weather Stations






























Interactive Weather Map New forecast layout! Learn more

10-Day Weather Forecast

Advertisements
Track Severe Weather on mobile